Time;durP1;ratioP1;P1;durP2;ratioP2;P2;SDS_P1;SDS_P2;PMS_P1;PMS_P2;Temp;Humidity;BMP_temperature;BMP_pressure;BME280_temperature;BME280_humidity;BME280_pressure;Samples;Min_cycle;Max_cycle;Signal;HPM_P1;HPM_P2
2023/04/26 00:07:45;;;;;;;4.40;1.47;;;4.10;99.90;;;;;;5037621;28;20821;-72
2023/04/26 00:10:11;;;;;;;1.43;1.33;;;4.00;99.90;;;;;;5038777;28;20441;-72
2023/04/26 00:12:36;;;;;;;2.40;1.97;;;4.00;99.90;;;;;;5038732;28;20418;-73
2023/04/26 00:15:03;;;;;;;2.73;1.37;;;4.00;99.90;;;;;;5038250;28;20195;-73
2023/04/26 00:17:29;;;;;;;2.47;1.63;;;4.00;99.90;;;;;;5038321;28;20168;-73
2023/04/26 00:19:56;;;;;;;3.83;1.70;;;4.00;99.90;;;;;;5038925;28;21022;-73
2023/04/26 00:22:22;;;;;;;5.60;2.27;;;4.00;99.90;;;;;;5037570;28;20159;-73
2023/04/26 00:24:47;;;;;;;4.40;1.20;;;4.00;99.90;;;;;;5037787;28;20453;-73
2023/04/26 00:27:13;;;;;;;4.93;1.50;;;4.00;99.90;;;;;;5037736;28;20433;-72
2023/04/26 00:29:39;;;;;;;2.10;1.20;;;4.00;99.90;;;;;;5038354;28;20168;-72
2023/04/26 00:32:04;;;;;;;1.63;1.47;;;4.00;99.90;;;;;;5038339;28;20175;-73
2023/04/26 00:34:34;;;;;;;1.50;1.40;;;4.00;99.90;;;;;;5038489;28;20172;-73
2023/04/26 00:37:01;;;;;;;1.50;1.40;;;4.00;99.90;;;;;;5038085;28;20637;-73
2023/04/26 00:39:27;;;;;;;2.00;1.63;;;4.00;99.90;;;;;;5037912;28;20930;-73
2023/04/26 00:41:53;;;;;;;2.80;1.63;;;4.00;99.90;;;;;;5037827;28;20407;-73
2023/04/26 00:44:19;;;;;;;3.30;2.20;;;4.00;99.90;;;;;;5038331;28;20449;-73
2023/04/26 00:46:45;;;;;;;7.43;1.70;;;4.00;99.90;;;;;;5036441;28;20794;-73
2023/04/26 00:49:17;;;;;;;2.63;2.43;;;4.00;99.90;;;;;;5037065;28;20247;-73
2023/04/26 00:51:44;;;;;;;3.37;2.00;;;4.00;99.90;;;;;;5037385;28;20418;-72
2023/04/26 00:54:11;;;;;;;9.43;2.47;;;4.00;99.90;;;;;;5037536;28;20412;-72
2023/04/26 00:56:38;;;;;;;4.50;2.37;;;4.00;99.90;;;;;;5037331;28;20426;-72
2023/04/26 00:59:03;;;;;;;4.40;2.17;;;4.00;99.90;;;;;;5037353;28;20411;-72
2023/04/26 01:01:29;;;;;;;4.10;2.37;;;4.00;99.90;;;;;;5037857;28;20410;-73
2023/04/26 01:03:55;;;;;;;3.00;2.20;;;4.10;99.90;;;;;;5036270;28;20176;-73
2023/04/26 01:06:21;;;;;;;4.07;2.50;;;4.00;99.90;;;;;;5037375;28;20556;-72
2023/04/26 01:08:50;;;;;;;5.20;2.40;;;4.00;99.90;;;;;;5037246;28;20453;-72
2023/04/26 01:11:18;;;;;;;5.13;2.20;;;4.10;99.90;;;;;;5037268;28;20430;-72
2023/04/26 01:13:45;;;;;;;8.03;2.60;;;4.10;99.90;;;;;;5036861;28;20422;-72
2023/04/26 01:16:10;;;;;;;3.17;2.03;;;4.10;99.90;;;;;;5036026;28;20592;-72
2023/04/26 01:18:36;;;;;;;8.17;2.80;;;4.10;99.90;;;;;;5036846;28;20449;-73
2023/04/26 01:21:03;;;;;;;4.17;2.50;;;4.20;99.90;;;;;;5052739;28;20183;-73
2023/04/26 01:23:28;;;;;;;7.07;2.67;;;4.20;99.90;;;;;;5036934;28;20164;-73
2023/04/26 01:25:55;;;;;;;3.27;2.90;;;4.20;99.90;;;;;;5052573;28;20822;-73
2023/04/26 01:28:20;;;;;;;3.80;2.50;;;4.20;99.90;;;;;;5036522;28;20216;-73
2023/04/26 01:30:46;;;;;;;2.70;2.23;;;4.10;99.90;;;;;;5052692;28;20407;-73
2023/04/26 01:33:14;;;;;;;6.40;2.27;;;4.10;99.90;;;;;;5034357;28;20175;-73
2023/04/26 01:35:39;;;;;;;2.27;1.43;;;4.10;99.90;;;;;;5051678;28;20287;-73
2023/04/26 01:38:05;;;;;;;4.97;2.70;;;4.10;99.90;;;;;;5036441;28;20442;-73
2023/04/26 01:40:30;;;;;;;5.90;2.30;;;4.10;99.90;;;;;;5036278;28;20199;-73
2023/04/26 01:42:56;;;;;;;2.60;2.20;;;4.00;99.90;;;;;;5035191;28;20264;-73
2023/04/26 01:45:21;;;;;;;5.13;3.17;;;4.00;99.90;;;;;;5035816;28;20321;-73
2023/04/26 01:47:47;;;;;;;4.33;2.10;;;4.00;99.90;;;;;;5035932;28;20163;-73
2023/04/26 01:50:12;;;;;;;4.30;2.00;;;4.00;99.90;;;;;;5036357;28;20210;-73
2023/04/26 01:52:38;;;;;;;9.00;2.70;;;4.00;99.90;;;;;;5035830;28;20175;-74
2023/04/26 01:55:04;;;;;;;10.20;3.00;;;3.90;99.90;;;;;;5035918;28;20199;-73
2023/04/26 01:57:29;;;;;;;9.80;2.50;;;3.90;99.90;;;;;;5034887;28;20263;-73
2023/04/26 01:59:55;;;;;;;2.40;2.20;;;3.90;99.90;;;;;;5033442;28;20437;-73
2023/04/26 02:02:21;;;;;;;8.30;2.17;;;3.80;99.90;;;;;;5051225;28;20201;-73
2023/04/26 02:04:46;;;;;;;3.20;2.53;;;3.80;99.90;;;;;;5036879;28;20245;-73
2023/04/26 02:07:12;;;;;;;4.37;1.90;;;3.80;99.90;;;;;;5036257;28;20225;-73
2023/04/26 02:09:37;;;;;;;3.30;2.00;;;3.80;99.90;;;;;;5036729;28;20206;-73
2023/04/26 02:12:03;;;;;;;4.43;2.60;;;3.70;99.90;;;;;;5035496;28;20183;-73
2023/04/26 02:14:28;;;;;;;3.57;2.90;;;3.70;99.90;;;;;;5036491;28;20176;-73
2023/04/26 02:16:55;;;;;;;4.03;2.80;;;3.70;99.90;;;;;;5035665;28;20240;-73
2023/04/26 02:19:21;;;;;;;2.70;2.10;;;3.70;99.90;;;;;;5036789;28;20163;-73
2023/04/26 02:21:51;;;;;;;3.73;2.50;;;3.60;99.90;;;;;;5036329;28;20444;-73
2023/04/26 02:24:17;;;;;;;3.23;2.30;;;3.60;99.90;;;;;;5035704;28;20653;-73
2023/04/26 02:26:42;;;;;;;4.97;2.20;;;3.60;99.90;;;;;;5050719;28;20438;-73
2023/04/26 02:29:08;;;;;;;4.07;2.70;;;3.50;99.90;;;;;;5035075;28;20671;-73
2023/04/26 02:31:33;;;;;;;5.20;2.30;;;3.50;99.90;;;;;;5051600;28;20574;-73
2023/04/26 02:33:59;;;;;;;8.43;4.50;;;3.50;99.90;;;;;;5051033;28;20194;-73
2023/04/26 02:36:25;;;;;;;6.83;3.00;;;3.50;99.90;;;;;;5034662;28;20226;-73
2023/04/26 02:38:51;;;;;;;5.50;2.40;;;3.40;99.90;;;;;;5036503;28;20530;-73
2023/04/26 02:41:16;;;;;;;3.93;2.63;;;3.40;99.90;;;;;;5036169;28;20437;-73
2023/04/26 02:43:42;;;;;;;3.30;2.80;;;3.30;99.90;;;;;;5052106;28;20251;-73
2023/04/26 02:46:07;;;;;;;4.77;2.53;;;3.30;99.90;;;;;;5039179;28;20230;-73
2023/04/26 02:48:33;;;;;;;6.13;4.20;;;3.30;99.90;;;;;;5055906;28;20189;-71
2023/04/26 02:50:59;;;;;;;8.20;3.00;;;3.20;99.90;;;;;;5040414;28;20176;-71
2023/04/26 02:53:24;;;;;;;6.43;2.73;;;3.20;99.90;;;;;;5039334;28;20258;-71
2023/04/26 02:55:50;;;;;;;6.73;2.37;;;3.10;99.90;;;;;;5040438;28;20190;-71
2023/04/26 02:58:16;;;;;;;2.53;1.93;;;3.00;99.90;;;;;;5039332;28;20167;-71
2023/04/26 03:00:48;;;;;;;3.70;1.87;;;3.00;99.90;;;;;;5035858;28;20167;-73
2023/04/26 03:03:14;;;;;;;3.53;2.50;;;2.90;99.90;;;;;;5051083;28;20449;-74
2023/04/26 03:05:40;;;;;;;3.30;2.40;;;2.90;99.90;;;;;;5034366;28;20461;-72
2023/04/26 03:08:06;;;;;;;3.03;1.83;;;2.80;99.90;;;;;;5035367;28;20402;-74
2023/04/26 03:10:32;;;;;;;5.07;2.03;;;2.70;99.90;;;;;;5037364;28;20406;-73
2023/04/26 03:12:57;;;;;;;7.50;1.60;;;2.70;99.90;;;;;;5038198;28;20430;-73
2023/04/26 03:15:23;;;;;;;2.17;1.97;;;2.60;99.90;;;;;;5053731;28;20646;-73
2023/04/26 03:17:48;;;;;;;1.83;1.40;;;2.60;99.90;;;;;;5037251;28;20182;-73
2023/04/26 03:20:14;;;;;;;17.47;10.47;;;2.50;99.90;;;;;;5055156;28;20182;-73
2023/04/26 03:22:40;;;;;;;12.70;7.57;;;2.50;99.90;;;;;;5055214;28;20182;-73
2023/04/26 03:25:06;;;;;;;4.90;3.33;;;2.40;99.90;;;;;;5054980;28;20233;-72
2023/04/26 03:27:32;;;;;;;7.17;3.67;;;2.40;99.90;;;;;;5039437;28;20510;-73
2023/04/26 03:29:58;;;;;;;3.03;2.10;;;2.30;99.90;;;;;;5038857;28;20417;-72
2023/04/26 03:32:23;;;;;;;2.07;1.70;;;2.30;99.90;;;;;;5037050;28;20410;-73
2023/04/26 03:34:49;;;;;;;3.10;1.67;;;2.20;99.90;;;;;;5036604;28;20244;-73
2023/04/26 03:37:15;;;;;;;3.67;2.20;;;2.20;99.90;;;;;;5038584;28;20174;-73
2023/04/26 03:39:40;;;;;;;3.83;1.63;;;2.10;99.90;;;;;;5038545;28;20180;-73
2023/04/26 03:42:07;;;;;;;2.30;2.10;;;2.10;99.90;;;;;;5053052;28;20179;-73
2023/04/26 03:44:32;;;;;;;3.20;1.80;;;2.00;99.90;;;;;;5035269;28;20195;-73
2023/04/26 03:46:58;;;;;;;5.27;2.40;;;2.00;99.90;;;;;;5037835;28;20830;-73
2023/04/26 03:49:23;;;;;;;2.43;2.23;;;2.00;99.90;;;;;;5035101;28;20640;-73
2023/04/26 03:51:49;;;;;;;4.77;2.90;;;1.90;99.90;;;;;;5035518;28;20452;-73
2023/04/26 03:54:15;;;;;;;4.07;2.10;;;1.90;99.90;;;;;;5034833;28;20252;-74
2023/04/26 03:56:41;;;;;;;2.60;1.90;;;1.90;99.90;;;;;;5035988;28;20199;-73
2023/04/26 03:59:08;;;;;;;1.73;1.63;;;1.90;99.90;;;;;;5035897;28;20167;-73
2023/04/26 04:01:34;;;;;;;2.23;1.60;;;1.90;99.90;;;;;;5038101;28;20297;-72
2023/04/26 04:03:59;;;;;;;4.23;2.33;;;1.90;99.90;;;;;;5054150;28;20481;-73
2023/04/26 04:06:25;;;;;;;2.70;2.00;;;1.80;99.90;;;;;;5037200;28;20202;-74
2023/04/26 04:08:51;;;;;;;2.80;1.43;;;1.80;99.90;;;;;;5038353;28;20171;-73
2023/04/26 04:11:17;;;;;;;2.10;1.90;;;1.80;99.90;;;;;;5039009;28;20424;-73
2023/04/26 04:13:42;;;;;;;4.80;2.50;;;1.80;99.90;;;;;;5035297;28;20599;-73
2023/04/26 04:16:09;;;;;;;2.73;2.27;;;1.80;99.90;;;;;;5036733;28;20196;-74
2023/04/26 04:18:35;;;;;;;3.60;2.63;;;1.80;99.90;;;;;;5035880;28;20172;-73
2023/04/26 04:21:00;;;;;;;5.50;2.10;;;1.80;99.90;;;;;;5036337;28;20767;-73
2023/04/26 04:23:26;;;;;;;7.37;3.13;;;1.80;99.90;;;;;;5036190;28;20409;-74
2023/04/26 04:25:52;;;;;;;8.33;5.97;;;1.70;99.90;;;;;;5035762;28;20210;-74
2023/04/26 04:28:18;;;;;;;6.27;3.37;;;1.80;99.90;;;;;;5036447;28;20436;-72
2023/04/26 04:30:44;;;;;;;7.67;3.60;;;1.80;99.90;;;;;;5054260;28;20176;-72
2023/04/26 04:33:11;;;;;;;3.90;3.10;;;1.80;99.90;;;;;;5054258;28;20161;-72
2023/04/26 04:35:36;;;;;;;4.43;2.17;;;1.80;99.90;;;;;;5036525;28;20422;-73
2023/04/26 04:38:02;;;;;;;4.50;2.17;;;1.80;99.90;;;;;;5034772;28;20459;-73
2023/04/26 04:40:27;;;;;;;9.37;3.67;;;1.90;99.90;;;;;;5037117;28;20187;-71
2023/04/26 04:42:54;;;;;;;7.07;3.33;;;1.90;99.90;;;;;;5036363;28;20172;-73
2023/04/26 04:45:20;;;;;;;2.90;2.60;;;1.90;99.90;;;;;;5030293;28;20206;-73
2023/04/26 04:47:46;;;;;;;5.70;2.73;;;2.00;99.90;;;;;;5033104;28;20490;-70
2023/04/26 04:50:12;;;;;;;5.13;2.70;;;2.10;99.90;;;;;;5048954;28;20442;-70
2023/04/26 04:52:37;;;;;;;16.23;3.00;;;2.30;99.90;;;;;;5033487;28;20402;-70
2023/04/26 04:55:03;;;;;;;5.27;2.90;;;2.40;99.90;;;;;;5032623;28;20208;-70
2023/04/26 04:57:31;;;;;;;5.90;3.47;;;2.50;99.90;;;;;;5048552;28;20179;-70
2023/04/26 04:59:57;;;;;;;6.13;3.37;;;2.70;99.90;;;;;;5033494;28;20493;-71
2023/04/26 05:02:22;;;;;;;4.53;2.83;;;2.80;99.90;;;;;;5032381;28;20497;-71
2023/04/26 05:04:48;;;;;;;5.27;3.40;;;3.00;99.90;;;;;;5033391;28;20394;-71
2023/04/26 05:07:14;;;;;;;29.47;15.73;;;3.20;99.90;;;;;;5031913;28;20164;-71
2023/04/26 05:09:41;;;;;;;12.60;6.97;;;3.60;99.90;;;;;;5033150;28;20209;-71
2023/04/26 05:12:06;;;;;;;9.43;4.70;;;3.90;99.90;;;;;;5033136;28;21119;-71
2023/04/26 05:14:32;;;;;;;6.70;4.07;;;4.20;99.90;;;;;;5032998;28;20493;-72
2023/04/26 05:16:57;;;;;;;6.37;4.23;;;4.60;99.90;;;;;;5031779;28;20203;-72
2023/04/26 05:19:23;;;;;;;8.03;4.50;;;5.00;99.90;;;;;;5033089;28;20171;-72
2023/04/26 05:21:49;;;;;;;6.50;3.80;;;5.30;99.90;;;;;;5033007;28;20557;-72
2023/04/26 05:24:15;;;;;;;8.00;4.30;;;5.60;99.90;;;;;;5033078;28;20168;-72
2023/04/26 05:26:40;;;;;;;12.87;4.00;;;5.90;99.90;;;;;;5031575;28;20199;-72
2023/04/26 05:29:06;;;;;;;6.00;4.47;;;6.10;99.90;;;;;;5032800;28;20162;-70
2023/04/26 05:31:31;;;;;;;12.30;7.07;;;6.30;99.90;;;;;;5032875;28;20641;-71
2023/04/26 05:33:57;;;;;;;10.70;5.23;;;6.50;99.90;;;;;;5032900;28;20198;-70
2023/04/26 05:36:22;;;;;;;6.43;4.60;;;6.90;99.90;;;;;;5048078;28;20793;-71
2023/04/26 05:38:48;;;;;;;11.83;5.33;;;7.60;99.90;;;;;;5032505;28;20254;-71
2023/04/26 05:41:13;;;;;;;8.43;5.37;;;8.40;99.90;;;;;;5031380;28;20262;-71
2023/04/26 05:43:39;;;;;;;6.93;5.57;;;9.40;99.90;;;;;;5032693;28;20220;-71
2023/04/26 05:46:05;;;;;;;7.63;5.23;;;10.30;99.90;;;;;;5047878;28;20609;-71
2023/04/26 05:48:30;;;;;;;8.70;5.23;;;11.00;99.90;;;;;;5031005;28;20171;-71
2023/04/26 05:50:56;;;;;;;8.77;5.10;;;11.70;99.90;;;;;;5032533;28;20164;-72
2023/04/26 05:53:21;;;;;;;8.23;4.50;;;12.40;99.90;;;;;;5032448;28;20168;-71
2023/04/26 05:55:47;;;;;;;6.53;4.87;;;13.20;99.90;;;;;;5032389;28;20187;-72
2023/04/26 05:58:13;;;;;;;8.43;5.30;;;14.00;99.90;;;;;;5032140;28;20172;-72
2023/04/26 06:00:38;;;;;;;8.07;4.40;;;14.70;99.90;;;;;;5032367;28;20242;-72
2023/04/26 06:03:04;;;;;;;7.20;5.00;;;15.50;99.90;;;;;;5032340;28;20175;-72
2023/04/26 06:05:30;;;;;;;9.97;4.60;;;16.10;96.80;;;;;;5030967;28;20206;-71
2023/04/26 06:07:56;;;;;;;8.70;4.90;;;16.80;91.40;;;;;;5031924;28;20164;-72
2023/04/26 06:10:22;;;;;;;5.80;4.00;;;17.30;83.20;;;;;;5030915;28;20414;-72
2023/04/26 06:12:48;;;;;;;6.30;3.87;;;18.00;79.30;;;;;;5047512;28;20426;-72
2023/04/26 06:15:13;;;;;;;6.40;3.87;;;18.70;70.60;;;;;;5032145;28;20560;-72
2023/04/26 06:17:40;;;;;;;4.60;3.70;;;19.30;63.90;;;;;;5047255;28;20214;-72
2023/04/26 06:20:08;;;;;;;4.53;3.87;;;19.70;58.50;;;;;;5046918;28;20353;-72
2023/04/26 06:22:34;;;;;;;10.87;4.20;;;20.00;55.70;;;;;;5030783;28;20429;-72
2023/04/26 06:25:00;;;;;;;7.40;4.23;;;20.50;53.20;;;;;;5030589;28;20466;-70
2023/04/26 06:27:26;;;;;;;9.90;3.80;;;21.10;52.30;;;;;;5030435;28;20176;-70
2023/04/26 06:29:51;;;;;;;3.90;3.30;;;21.60;50.10;;;;;;5032139;28;20168;-71
2023/04/26 06:32:17;;;;;;;4.93;3.80;;;22.10;47.90;;;;;;5031987;28;20185;-71
2023/04/26 06:34:44;;;;;;;6.23;2.80;;;22.40;45.50;;;;;;5047194;28;20205;-70
2023/04/26 06:37:10;;;;;;;4.40;2.77;;;22.60;45.10;;;;;;5047063;28;20175;-71
2023/04/26 06:39:37;;;;;;;8.30;2.93;;;22.60;43.80;;;;;;5031952;28;20451;-70
2023/04/26 06:42:03;;;;;;;4.80;2.97;;;22.50;43.30;;;;;;5031919;28;20406;-70
2023/04/26 06:44:29;;;;;;;5.67;2.90;;;22.30;42.50;;;;;;5031950;28;20843;-70
2023/04/26 06:46:55;;;;;;;5.07;3.20;;;22.50;43.10;;;;;;5031638;28;20409;-70
2023/04/26 06:49:21;;;;;;;8.23;3.40;;;23.10;42.70;;;;;;5031836;28;20402;-71
2023/04/26 06:51:46;;;;;;;9.23;3.40;;;23.90;41.60;;;;;;5031740;28;20497;-70
2023/04/26 06:54:12;;;;;;;5.00;2.33;;;24.40;39.80;;;;;;5030532;28;20579;-70
2023/04/26 06:56:37;;;;;;;3.93;2.83;;;24.70;39.80;;;;;;5031671;28;20191;-70
2023/04/26 06:59:05;;;;;;;2.70;2.27;;;24.90;39.00;;;;;;5031639;28;20182;-71
2023/04/26 07:01:32;;;;;;;3.80;3.10;;;25.00;38.60;;;;;;5031735;28;20171;-71
2023/04/26 07:04:02;;;;;;;9.10;3.23;;;25.00;37.70;;;;;;5031691;28;20399;-70
2023/04/26 07:06:28;;;;;;;4.70;2.97;;;24.70;37.10;;;;;;5031601;28;20437;-70
2023/04/26 07:08:54;;;;;;;4.27;3.40;;;24.10;36.90;;;;;;5030187;28;20857;-70
2023/04/26 07:11:20;;;;;;;6.30;3.97;;;23.60;37.30;;;;;;5031636;28;20430;-71
2023/04/26 07:13:45;;;;;;;3.50;2.70;;;22.90;37.50;;;;;;5031531;28;20187;-71
2023/04/26 07:16:11;;;;;;;6.00;3.30;;;22.20;37.80;;;;;;5031559;28;20915;-70
2023/04/26 07:18:38;;;;;;;8.47;3.90;;;21.50;38.30;;;;;;5031350;28;20164;-70
2023/04/26 07:21:04;;;;;;;4.27;2.67;;;21.10;39.30;;;;;;5031526;28;20167;-72
2023/04/26 07:23:30;;;;;;;3.80;2.80;;;20.80;39.50;;;;;;5031632;28;20398;-72
2023/04/26 07:25:55;;;;;;;6.77;2.90;;;20.50;39.40;;;;;;5046793;28;20203;-72
2023/04/26 07:28:21;;;;;;;4.67;3.20;;;20.10;39.80;;;;;;5030058;28;20179;-71
2023/04/26 07:30:46;;;;;;;5.23;3.77;;;19.70;40.20;;;;;;5032085;28;20171;-71
2023/04/26 07:33:12;;;;;;;6.30;3.83;;;19.50;41.10;;;;;;5035190;28;20168;-72
2023/04/26 07:35:37;;;;;;;5.63;3.80;;;19.20;41.60;;;;;;5035043;28;20190;-72
2023/04/26 07:38:03;;;;;;;6.67;4.50;;;19.00;41.80;;;;;;5034953;28;20172;-71
2023/04/26 07:40:30;;;;;;;4.00;3.27;;;18.70;42.40;;;;;;5050420;28;20225;-71
2023/04/26 07:42:55;;;;;;;7.37;3.73;;;18.30;43.70;;;;;;5035002;28;20531;-71
2023/04/26 07:45:21;;;;;;;7.10;4.10;;;18.10;44.60;;;;;;5034761;28;20458;-71
2023/04/26 07:47:47;;;;;;;11.13;3.73;;;17.90;45.30;;;;;;5035114;28;20164;-71
2023/04/26 07:50:13;;;;;;;7.03;4.70;;;17.80;45.50;;;;;;5035010;28;20164;-71
2023/04/26 07:52:38;;;;;;;6.77;3.50;;;17.70;45.70;;;;;;5034771;28;20160;-71
2023/04/26 07:55:04;;;;;;;2.93;2.43;;;17.50;45.80;;;;;;5034868;28;20194;-72
2023/04/26 07:57:30;;;;;;;6.73;2.80;;;17.30;45.70;;;;;;5034522;28;20168;-71
2023/04/26 07:59:56;;;;;;;7.53;3.70;;;17.20;44.60;;;;;;5049935;28;20907;-71
2023/04/26 08:02:21;;;;;;;4.73;2.53;;;16.90;43.70;;;;;;5034280;28;20250;-71
2023/04/26 08:04:48;;;;;;;5.10;2.63;;;16.80;44.00;;;;;;5034391;28;20450;-71
2023/04/26 08:07:15;;;;;;;5.57;3.83;;;16.70;45.40;;;;;;5030122;28;20164;-71
2023/04/26 08:09:40;;;;;;;10.50;4.33;;;16.50;44.70;;;;;;5023890;28;20422;-72
2023/04/26 08:12:06;;;;;;;4.97;3.33;;;16.30;44.40;;;;;;5014464;28;20423;-71
2023/04/26 08:14:33;;;;;;;3.43;2.97;;;15.90;44.90;;;;;;5014412;28;20183;-71
2023/04/26 08:17:00;;;;;;;4.87;2.70;;;16.30;46.60;;;;;;5013046;28;20180;-72
2023/04/26 08:19:29;;;;;;;3.00;2.37;;;17.10;47.70;;;;;;5014504;28;20403;-72
2023/04/26 08:21:55;;;;;;;5.57;2.50;;;18.30;47.80;;;;;;5029983;28;20940;-72
2023/04/26 08:24:21;;;;;;;6.00;3.90;;;19.40;46.40;;;;;;5014585;28;20482;-70
2023/04/26 08:26:46;;;;;;;6.93;2.90;;;20.60;45.00;;;;;;5013152;28;20956;-71
2023/04/26 08:29:13;;;;;;;4.67;2.13;;;21.40;42.50;;;;;;5014033;28;20160;-70
2023/04/26 08:31:39;;;;;;;7.70;3.10;;;22.10;41.00;;;;;;5013010;28;20263;-71
2023/04/26 08:34:05;;;;;;;7.50;2.93;;;23.00;41.80;;;;;;5014228;28;20482;-71
2023/04/26 08:36:34;;;;;;;3.40;2.37;;;23.90;40.70;;;;;;5014188;28;20208;-71
2023/04/26 08:39:00;;;;;;;3.93;2.47;;;24.40;39.20;;;;;;5012693;28;20179;-71
2023/04/26 08:41:27;;;;;;;4.50;1.90;;;24.70;38.40;;;;;;5013817;28;20399;-71
2023/04/26 08:43:54;;;;;;;5.63;3.27;;;25.20;38.10;;;;;;5012597;28;20169;-70
2023/04/26 08:46:21;;;;;;;4.03;2.47;;;25.80;36.60;;;;;;5013726;28;20459;-71
2023/04/26 08:49:00;;;;;;;14.20;2.70;;;26.50;36.60;;;;;;5013650;28;20792;-71
2023/04/26 08:51:26;;;;;;;8.53;3.70;;;27.10;35.60;;;;;;5012908;28;20411;-71
2023/04/26 08:53:54;;;;;;;2.70;2.50;;;27.60;34.50;;;;;;5029090;28;20916;-73
2023/04/26 08:56:23;;;;;;;3.77;2.80;;;28.20;33.60;;;;;;5013773;28;20517;-72
2023/04/26 08:58:49;;;;;;;3.57;2.50;;;28.80;33.00;;;;;;5013459;28;20411;-71
2023/04/26 09:01:15;;;;;;;2.97;2.07;;;29.30;31.40;;;;;;5028956;28;20419;-71
2023/04/26 09:03:41;;;;;;;5.23;1.87;;;29.10;31.00;;;;;;5013680;28;20411;-71
2023/04/26 09:06:07;;;;;;;3.00;2.13;;;28.60;30.70;;;;;;5013494;28;20455;-71
2023/04/26 09:08:37;;;;;;;5.10;2.70;;;28.00;30.00;;;;;;5028690;28;20164;-70
2023/04/26 09:11:03;;;;;;;3.37;1.87;;;27.00;30.10;;;;;;5013569;28;20800;-70
2023/04/26 09:13:29;;;;;;;2.03;1.80;;;26.10;30.30;;;;;;5013330;28;20445;-71
2023/04/26 09:15:54;;;;;;;3.07;2.00;;;25.00;29.50;;;;;;5013429;28;20259;-71
2023/04/26 09:18:22;;;;;;;3.47;1.80;;;24.10;29.70;;;;;;5013185;28;20427;-70
2023/04/26 09:21:07;;;;;;;4.03;2.37;;;23.30;29.80;;;;;;5013363;28;20577;-70
2023/04/26 09:23:33;;;;;;;4.23;1.63;;;22.30;30.00;;;;;;5013378;28;20896;-72
2023/04/26 09:26:19;;;;;;;2.27;1.60;;;21.10;30.00;;;;;;5028377;28;20455;-71
2023/04/26 09:28:46;;;;;;;4.67;1.43;;;20.60;32.00;;;;;;5012906;28;20672;-72
2023/04/26 09:31:31;;;;;;;7.40;2.00;;;20.10;33.10;;;;;;5013224;28;20490;-71
2023/04/26 09:33:58;;;;;;;6.03;1.60;;;19.60;34.30;;;;;;5013134;28;20450;-70
2023/04/26 09:36:24;;;;;;;2.23;1.90;;;19.30;35.10;;;;;;5011790;28;20462;-69
2023/04/26 09:38:49;;;;;;;2.90;1.73;;;19.10;35.70;;;;;;5012702;28;20438;-70
2023/04/26 09:41:15;;;;;;;2.30;1.63;;;19.00;36.10;;;;;;5011779;28;20168;-70
2023/04/26 09:43:41;;;;;;;5.07;1.30;;;18.80;36.50;;;;;;5013050;28;20168;-70
2023/04/26 09:46:06;;;;;;;1.50;1.30;;;18.60;36.50;;;;;;5012946;28;20693;-70
2023/04/26 09:48:33;;;;;;;3.80;1.93;;;18.30;36.50;;;;;;5012638;28;20172;-69
2023/04/26 09:51:01;;;;;;;1.70;1.60;;;18.20;36.60;;;;;;5012667;28;20160;-70
2023/04/26 09:53:28;;;;;;;2.90;1.57;;;18.20;37.20;;;;;;5012780;28;20408;-71
2023/04/26 09:56:14;;;;;;;4.40;1.90;;;18.60;38.00;;;;;;5011831;28;20469;-72
2023/04/26 09:58:40;;;;;;;2.83;1.60;;;19.40;38.10;;;;;;5012539;28;20741;-70
2023/04/26 10:01:07;;;;;;;3.63;1.70;;;20.00;37.40;;;;;;5011359;28;21006;-70
2023/04/26 10:03:35;;;;;;;2.17;1.50;;;20.30;36.60;;;;;;5012640;28;20168;-71
2023/04/26 10:06:01;;;;;;;3.83;2.10;;;20.90;36.70;;;;;;5012419;28;20458;-71
2023/04/26 10:08:27;;;;;;;3.07;1.90;;;22.20;36.80;;;;;;5012313;28;20498;-72
2023/04/26 10:10:54;;;;;;;6.23;2.30;;;24.10;37.10;;;;;;5012470;28;20431;-72
2023/04/26 10:13:20;;;;;;;6.10;2.40;;;26.00;34.50;;;;;;5012484;28;20176;-70
2023/04/26 10:15:47;;;;;;;2.60;2.13;;;25.80;30.00;;;;;;5012339;28;20427;-71
2023/04/26 10:18:12;;;;;;;2.23;1.60;;;24.90;30.00;;;;;;5012139;28;20399;-70
2023/04/26 10:20:41;;;;;;;3.17;2.37;;;24.90;32.10;;;;;;5012431;28;20776;-70
2023/04/26 10:23:16;;;;;;;3.33;2.07;;;25.10;32.50;;;;;;5011129;28;20283;-70
2023/04/26 10:25:41;;;;;;;5.60;2.50;;;25.50;29.90;;;;;;5010979;28;20832;-71
2023/04/26 10:28:07;;;;;;;1.90;1.80;;;26.80;29.90;;;;;;5012023;28;20412;-71
2023/04/26 10:30:53;;;;;;;5.87;2.53;;;29.00;30.70;;;;;;5012281;28;20171;-72
2023/04/26 10:33:20;;;;;;;3.77;2.43;;;31.90;28.60;;;;;;5012325;28;20393;-72
2023/04/26 10:36:13;;;;;;;2.43;1.63;;;33.40;28.10;;;;;;5012182;28;20423;-72
2023/04/26 10:38:41;;;;;;;3.50;2.23;;;35.40;28.10;;;;;;5012093;28;20486;-72
2023/04/26 10:41:29;;;;;;;2.47;2.20;;;37.10;26.00;;;;;;5012162;28;20808;-72
2023/04/26 10:43:54;;;;;;;3.47;2.53;;;36.30;24.40;;;;;;5012195;28;20407;-72
2023/04/26 10:46:39;;;;;;;2.90;1.97;;;35.10;23.90;;;;;;5012126;28;20508;-71
2023/04/26 10:49:13;;;;;;;5.40;2.20;;;33.90;24.00;;;;;;5012028;28;20183;-72
2023/04/26 10:51:39;;;;;;;3.07;1.70;;;32.30;24.20;;;;;;5012014;28;20411;-72
2023/04/26 10:54:05;;;;;;;6.43;2.30;;;31.00;24.80;;;;;;5027437;28;20407;-71
2023/04/26 10:56:30;;;;;;;2.80;1.90;;;29.40;25.60;;;;;;5012203;28;20195;-71
2023/04/26 10:59:10;;;;;;;2.53;2.13;;;28.00;26.30;;;;;;5011769;28;20490;-71
2023/04/26 11:01:36;;;;;;;3.23;2.20;;;26.80;27.20;;;;;;5012051;28;20175;-71
2023/04/26 11:04:09;;;;;;;5.33;2.07;;;26.10;27.70;;;;;;5011885;28;20912;-70
2023/04/26 11:06:54;;;;;;;2.03;1.83;;;25.80;28.50;;;;;;5013806;28;20451;-72
2023/04/26 11:09:35;;;;;;;3.23;2.00;;;25.90;29.30;;;;;;5016115;28;20407;-71
2023/04/26 11:12:03;;;;;;;2.83;1.90;;;26.20;29.30;;;;;;5015631;28;20781;-71
2023/04/26 11:14:30;;;;;;;3.27;2.30;;;26.20;28.60;;;;;;5030913;28;20486;-72
2023/04/26 11:16:55;;;;;;;3.40;1.67;;;26.10;28.30;;;;;;5015437;28;20431;-72
2023/04/26 11:19:21;;;;;;;3.10;2.10;;;26.20;28.60;;;;;;5015701;28;20438;-72
2023/04/26 11:21:47;;;;;;;1.97;1.40;;;26.40;28.70;;;;;;5015635;28;20398;-73
2023/04/26 11:24:14;;;;;;;3.50;2.03;;;26.50;28.10;;;;;;5015468;28;20211;-70
2023/04/26 11:26:40;;;;;;;6.20;2.33;;;26.80;28.40;;;;;;5015326;28;20188;-70
2023/04/26 11:29:08;;;;;;;2.10;1.90;;;27.00;27.80;;;;;;5015272;28;20407;-71
2023/04/26 11:31:33;;;;;;;4.83;2.43;;;27.10;27.10;;;;;;5015449;28;20178;-70
2023/04/26 11:34:03;;;;;;;3.77;1.50;;;27.20;27.00;;;;;;5014337;28;20439;-71
2023/04/26 11:36:29;;;;;;;2.57;2.07;;;27.40;26.90;;;;;;5015500;28;20203;-71
2023/04/26 11:38:56;;;;;;;2.40;2.07;;;27.90;27.40;;;;;;5015073;28;20955;-71
2023/04/26 11:41:22;;;;;;;2.07;1.97;;;28.40;27.20;;;;;;5015272;28;20550;-71
2023/04/26 11:43:48;;;;;;;3.83;2.47;;;28.20;25.60;;;;;;5015286;28;20411;-71
2023/04/26 11:46:14;;;;;;;2.37;1.77;;;28.60;26.20;;;;;;5015014;28;20463;-72
2023/04/26 11:48:40;;;;;;;3.80;2.30;;;29.20;26.60;;;;;;5014948;28;20176;-71
2023/04/26 11:51:07;;;;;;;5.67;2.30;;;29.80;26.30;;;;;;5015218;28;20169;-72
2023/04/26 11:53:37;;;;;;;5.43;2.53;;;30.60;26.50;;;;;;5015104;28;20441;-72
2023/04/26 11:56:12;;;;;;;2.50;1.80;;;31.00;26.00;;;;;;5014452;28;20430;-70
2023/04/26 11:58:37;;;;;;;2.27;2.07;;;30.70;25.80;;;;;;5013442;28;20494;-69
2023/04/26 12:01:03;;;;;;;2.60;1.93;;;29.90;25.40;;;;;;5014837;28;20415;-70
2023/04/26 12:03:36;;;;;;;2.30;2.10;;;29.20;25.40;;;;;;5014890;28;20299;-70
2023/04/26 12:06:02;;;;;;;2.47;1.77;;;28.50;25.80;;;;;;5014658;28;20228;-69
2023/04/26 12:08:28;;;;;;;3.77;1.73;;;27.90;26.40;;;;;;5013099;28;20967;-70
2023/04/26 12:11:01;;;;;;;3.10;2.37;;;27.20;26.70;;;;;;5014721;28;20495;-70
2023/04/26 12:13:28;;;;;;;3.33;2.10;;;26.50;27.20;;;;;;5014659;28;20195;-70
2023/04/26 12:15:54;;;;;;;3.93;2.00;;;26.10;27.50;;;;;;5014597;28;20462;-70
2023/04/26 12:18:22;;;;;;;2.67;1.70;;;25.80;27.60;;;;;;5013383;28;20462;-70
2023/04/26 12:20:48;;;;;;;2.53;2.10;;;25.60;28.10;;;;;;5014510;28;20442;-70
2023/04/26 12:23:15;;;;;;;3.53;2.70;;;25.20;27.90;;;;;;5013018;28;20406;-71
2023/04/26 12:25:52;;;;;;;3.63;2.00;;;25.20;28.60;;;;;;5029515;28;20215;-71
2023/04/26 12:28:17;;;;;;;2.80;1.83;;;25.90;28.80;;;;;;5014449;28;20769;-72
2023/04/26 12:30:43;;;;;;;3.60;1.80;;;26.80;28.60;;;;;;5014524;28;20403;-71
2023/04/26 12:33:09;;;;;;;4.70;2.13;;;27.30;28.20;;;;;;5014310;28;20180;-72
2023/04/26 12:35:35;;;;;;;2.30;2.10;;;27.30;27.30;;;;;;5014214;28;20215;-72
2023/04/26 12:38:01;;;;;;;2.90;2.40;;;27.00;27.00;;;;;;5013872;28;20934;-71
2023/04/26 12:40:27;;;;;;;2.80;2.00;;;26.80;27.40;;;;;;5014147;28;20172;-72
2023/04/26 12:42:54;;;;;;;2.40;1.87;;;26.80;27.30;;;;;;5029504;28;20176;-71
2023/04/26 12:45:21;;;;;;;3.37;2.60;;;26.70;27.40;;;;;;5012655;28;20473;-72
2023/04/26 12:47:47;;;;;;;2.40;2.10;;;26.60;27.30;;;;;;5014193;28;20407;-72
2023/04/26 12:50:14;;;;;;;3.20;2.23;;;26.30;26.90;;;;;;5014006;28;20411;-72
2023/04/26 12:52:41;;;;;;;2.40;2.20;;;26.30;27.40;;;;;;5013923;28;20407;-72
2023/04/26 12:55:08;;;;;;;4.17;1.97;;;26.50;27.30;;;;;;5012521;28;20435;-71